Time;durP1;ratioP1;P1;durP2;ratioP2;P2;SDS_P1;SDS_P2;PMS_P1;PMS_P2;Temp;Humidity;BMP_temperature;BMP_pressure;BME280_temperature;BME280_humidity;BME280_pressure;Samples;Min_cycle;Max_cycle;Signal;HPM_P1;HPM_P2
2023/01/09 00:01:52;;;;;;;1.10;1.10;;;;;;;7.44;75.64;93816.16;4373528;32;20189;-66
2023/01/09 00:04:18;;;;;;;0.97;0.97;;;;;;;7.57;75.23;93815.97;4382288;32;20193;-66
2023/01/09 00:06:45;;;;;;;1.00;0.97;;;;;;;7.70;74.92;93821.41;4391216;32;20184;-65
2023/01/09 00:09:11;;;;;;;1.37;1.27;;;;;;;7.67;74.49;93830.75;4381836;32;20199;-65
2023/01/09 00:11:37;;;;;;;0.83;0.83;;;;;;;7.48;75.39;93841.56;4377818;32;20269;-67
2023/01/09 00:14:03;;;;;;;4.13;1.00;;;;;;;7.64;74.81;93839.28;4384733;32;20298;-66
2023/01/09 00:16:28;;;;;;;1.23;1.23;;;;;;;7.74;74.37;93852.13;4392829;32;20192;-66
2023/01/09 00:18:55;;;;;;;0.60;0.60;;;;;;;7.88;73.75;93858.06;4361955;32;20321;-66
2023/01/09 00:21:21;;;;;;;0.97;0.97;;;;;;;7.69;74.51;93854.94;4382133;32;20176;-65
2023/01/09 00:23:46;;;;;;;1.23;1.23;;;;;;;7.65;74.52;93866.44;4380032;32;20296;-65
2023/01/09 00:26:15;;;;;;;1.93;1.83;;;;;;;7.44;75.22;93866.28;4383286;32;20224;-65
2023/01/09 00:28:41;;;;;;;0.70;0.70;;;;;;;7.30;75.46;93866.37;4363495;32;20180;-66
2023/01/09 00:31:08;;;;;;;1.37;1.27;;;;;;;7.36;75.35;93859.88;4379596;32;20294;-65
2023/01/09 00:33:56;;;;;;;3.80;1.70;;;;;;;7.29;76.19;93856.16;4390456;32;20274;-66
2023/01/09 00:36:21;;;;;;;0.73;0.73;;;;;;;7.40;75.83;93862.69;4368806;32;20430;-66
2023/01/09 00:38:47;;;;;;;1.00;1.00;;;;;;;7.19;76.45;93865.91;4371617;32;20288;-65
2023/01/09 00:41:59;;;;;;;1.23;1.23;;;;;;;7.23;76.76;93866.09;4380627;32;20222;-66
2023/01/09 00:44:32;;;;;;;1.00;1.00;;;;;;;7.15;77.75;93864.19;4377250;32;20251;-65
2023/01/09 00:47:06;;;;;;;1.73;1.63;;;;;;;7.19;78.06;93854.59;4387423;32;20298;-66
2023/01/09 00:49:36;;;;;;;0.20;0.20;;;;;;;7.03;79.31;93859.53;4389596;32;20345;-66
2023/01/09 00:52:06;;;;;;;1.60;1.40;;;;;;;7.09;79.46;93866.19;4363029;32;20312;-66
2023/01/09 00:54:31;;;;;;;1.00;1.00;;;;;;;7.16;79.20;93855.22;4365180;32;20446;-66
2023/01/09 00:56:58;;;;;;;0.87;0.87;;;;;;;7.20;79.59;93858.78;4372312;32;20288;-66
2023/01/09 00:59:23;;;;;;;1.57;1.10;;;;;;;7.08;79.85;93864.63;4372246;32;20204;-65
2023/01/09 01:01:49;;;;;;;0.80;0.80;;;;;;;7.33;78.72;93855.22;4369605;32;20283;-66
2023/01/09 01:09:42;;;;;;;1.03;1.03;;;;;;;7.16;79.35;93857.84;4389232;32;20314;-66
2023/01/09 01:12:07;;;;;;;0.77;0.77;;;;;;;7.37;78.40;93845.62;4393953;32;20288;-66
2023/01/09 01:14:34;;;;;;;1.13;1.13;;;;;;;7.35;79.05;93845.16;4359000;32;20268;-66
2023/01/09 01:17:00;;;;;;;0.90;0.90;;;;;;;7.28;79.59;93842.19;4375248;32;20233;-66
2023/01/09 01:19:25;;;;;;;1.10;1.10;;;;;;;7.30;79.96;93845.28;4387887;32;20280;-65
2023/01/09 01:21:51;;;;;;;0.93;0.93;;;;;;;7.43;78.80;93843.63;4371850;32;20493;-65
2023/01/09 01:24:19;;;;;;;0.60;0.60;;;;;;;7.41;79.30;93851.06;4366031;32;20199;-65
2023/01/09 01:26:45;;;;;;;0.80;0.80;;;;;;;7.54;78.98;93844.84;4379842;32;20288;-65
2023/01/09 01:29:10;;;;;;;1.20;1.20;;;;;;;7.57;78.69;93845.00;4383653;32;20272;-66
2023/01/09 01:31:36;;;;;;;1.03;1.03;;;;;;;7.37;79.38;93842.97;4377009;32;20308;-66
2023/01/09 01:34:05;;;;;;;1.10;1.10;;;;;;;7.36;79.65;93833.50;4378425;32;20224;-66
2023/01/09 01:36:30;;;;;;;0.73;0.73;;;;;;;7.45;79.25;93828.25;4393991;32;20188;-66
2023/01/09 01:38:55;;;;;;;0.80;0.80;;;;;;;7.41;79.23;93819.41;4395230;32;20298;-66
2023/01/09 01:41:29;;;;;;;0.80;0.80;;;;;;;7.45;78.81;93834.31;4387943;32;20289;-66
2023/01/09 01:44:00;;;;;;;1.07;0.97;;;;;;;7.63;78.28;93836.94;4381709;32;20191;-66
2023/01/09 01:46:27;;;;;;;0.77;0.77;;;;;;;7.78;78.46;93839.09;4387869;32;20268;-66
2023/01/09 01:48:59;;;;;;;1.57;1.57;;;;;;;7.45;79.64;93847.50;4378764;32;20290;-66
2023/01/09 01:51:27;;;;;;;1.50;1.23;;;;;;;7.56;79.06;93840.03;4364659;32;20294;-66
2023/01/09 01:53:56;;;;;;;0.80;0.80;;;;;;;7.64;79.16;93834.00;4370173;32;20330;-66
2023/01/09 01:56:29;;;;;;;1.00;1.00;;;;;;;7.68;78.77;93834.94;4370283;32;20315;-66
2023/01/09 01:59:14;;;;;;;1.07;0.97;;;;;;;7.50;79.46;93834.13;4365227;32;20280;-66
2023/01/09 02:01:44;;;;;;;0.80;0.80;;;;;;;7.64;79.24;93818.16;4386596;32;20272;-66
2023/01/09 02:04:10;;;;;;;1.43;1.13;;;;;;;7.52;79.52;93825.91;4392980;32;20336;-66
2023/01/09 02:06:36;;;;;;;0.73;0.70;;;;;;;7.76;78.80;93825.44;4379989;32;20313;-66
2023/01/09 02:09:06;;;;;;;0.27;0.27;;;;;;;7.74;78.59;93823.09;4395065;32;20330;-66
2023/01/09 02:11:32;;;;;;;0.50;0.50;;;;;;;7.65;78.94;93822.34;4373159;32;20311;-67
2023/01/09 02:14:01;;;;;;;0.87;0.87;;;;;;;7.61;79.30;93839.88;4375682;32;20303;-66
2023/01/09 02:16:29;;;;;;;1.00;1.00;;;;;;;7.70;79.34;93839.88;4369957;32;20203;-66
2023/01/09 02:19:26;;;;;;;1.53;1.43;;;;;;;7.62;79.38;93841.44;4376169;32;20288;-65
2023/01/09 02:22:15;;;;;;;0.83;0.83;;;;;;;7.58;79.42;93843.91;4372660;32;20307;-66
2023/01/09 02:25:02;;;;;;;0.37;0.37;;;;;;;7.62;79.63;93844.09;4368924;32;20292;-66
2023/01/09 02:28:02;;;;;;;1.17;0.63;;;;;;;7.81;78.76;93839.25;4367641;32;20308;-65
2023/01/09 02:30:39;;;;;;;0.43;0.43;;;;;;;7.72;79.11;93840.34;4363127;32;20276;-66
2023/01/09 02:33:41;;;;;;;0.63;0.63;;;;;;;7.72;79.08;93854.31;4380902;32;20309;-66
2023/01/09 02:36:12;;;;;;;0.70;0.70;;;;;;;7.84;79.07;93849.19;4373281;32;20292;-66
2023/01/09 02:38:52;;;;;;;0.90;0.90;;;;;;;7.63;79.92;93842.22;4385400;32;20364;-66
2023/01/09 02:41:31;;;;;;;0.80;0.80;;;;;;;7.63;80.38;93840.34;4374660;32;20281;-66
2023/01/09 02:44:26;;;;;;;0.80;0.80;;;;;;;7.64;80.62;93835.84;4377833;32;20279;-66
2023/01/09 02:47:07;;;;;;;0.67;0.67;;;;;;;7.71;80.65;93841.41;4390651;32;20319;-66
2023/01/09 02:49:36;;;;;;;0.83;0.83;;;;;;;7.54;81.32;93848.25;4378074;32;20275;-66
2023/01/09 02:52:24;;;;;;;0.80;0.80;;;;;;;7.55;81.45;93839.25;4392263;32;20296;-66
2023/01/09 02:55:23;;;;;;;0.97;0.97;;;;;;;7.32;82.98;93837.06;4373963;32;20358;-66
2023/01/09 02:58:29;;;;;;;0.30;0.30;;;;;;;7.28;83.47;93831.62;4368258;32;20353;-66
2023/01/09 03:01:13;;;;;;;0.33;0.33;;;;;;;7.48;83.00;93817.84;4365115;32;20343;-66
2023/01/09 03:04:09;;;;;;;0.23;0.23;;;;;;;7.66;82.68;93820.50;4390283;32;20399;-66
2023/01/09 03:06:46;;;;;;;0.80;0.80;;;;;;;7.42;83.95;93823.59;4367129;32;20269;-66
2023/01/09 03:09:18;;;;;;;0.50;0.50;;;;;;;7.32;84.94;93829.94;4390086;32;20275;-66
2023/01/09 03:11:49;;;;;;;0.53;0.53;;;;;;;7.34;86.01;93819.84;4388618;32;20271;-66
2023/01/09 03:14:21;;;;;;;0.57;0.57;;;;;;;7.35;85.39;93813.50;4375066;32;20269;-66
2023/01/09 03:16:51;;;;;;;0.57;0.57;;;;;;;7.39;85.82;93830.25;4386856;32;20267;-65
2023/01/09 03:19:20;;;;;;;0.77;0.77;;;;;;;7.38;85.82;93830.56;4390022;32;20278;-66
2023/01/09 03:21:46;;;;;;;0.37;0.37;;;;;;;7.29;86.28;93838.47;4375750;32;20287;-68
2023/01/09 03:24:12;;;;;;;0.23;0.23;;;;;;;7.31;86.20;93832.88;4362155;32;20273;-67
2023/01/09 03:26:38;;;;;;;0.63;0.63;;;;;;;7.28;87.15;93830.84;4378833;32;20350;-67
2023/01/09 03:29:04;;;;;;;1.53;0.73;;;;;;;7.02;88.89;93823.72;4388474;32;20255;-67
2023/01/09 03:31:29;;;;;;;0.77;0.77;;;;;;;7.20;87.82;93822.66;4368492;32;20359;-66
2023/01/09 03:33:54;;;;;;;0.90;0.73;;;;;;;7.34;87.56;93819.06;4364999;32;20246;-66
2023/01/09 03:36:21;;;;;;;0.80;0.37;;;;;;;7.14;88.17;93825.72;4369274;32;20215;-66
2023/01/09 03:38:48;;;;;;;0.83;0.83;;;;;;;7.08;88.51;93829.59;4366678;32;20184;-66
2023/01/09 03:41:13;;;;;;;0.97;0.97;;;;;;;7.01;89.28;93832.69;4377812;32;20291;-65
2023/01/09 03:43:38;;;;;;;0.77;0.77;;;;;;;7.25;88.56;93829.63;4388314;32;20272;-67
2023/01/09 03:46:04;;;;;;;0.80;0.50;;;;;;;7.18;88.46;93830.09;4386361;32;20185;-66
2023/01/09 03:48:30;;;;;;;0.57;0.57;;;;;;;7.29;88.43;93829.78;4355584;32;20189;-66
2023/01/09 03:50:56;;;;;;;0.57;0.57;;;;;;;7.37;87.42;93824.50;4385544;32;20272;-67
2023/01/09 03:53:24;;;;;;;0.37;0.37;;;;;;;7.34;88.68;93824.34;4353403;32;20185;-67
2023/01/09 03:55:52;;;;;;;0.47;0.47;;;;;;;7.19;89.24;93822.94;4346671;32;20181;-67
2023/01/09 03:58:18;;;;;;;4.10;0.77;;;;;;;7.19;89.26;93830.88;4384368;32;20288;-66
2023/01/09 04:00:47;;;;;;;0.63;0.63;;;;;;;7.36;88.52;93838.78;4379744;32;20292;-65
2023/01/09 04:03:13;;;;;;;0.73;0.70;;;;;;;7.26;89.19;93844.38;4377129;32;20292;-66
2023/01/09 04:05:39;;;;;;;0.60;0.60;;;;;;;7.11;89.71;93836.88;4385594;32;20276;-66
2023/01/09 04:08:04;;;;;;;0.37;0.37;;;;;;;7.21;89.80;93841.87;4378544;32;20284;-66
2023/01/09 04:10:30;;;;;;;0.73;0.50;;;;;;;7.24;89.57;93836.78;4376732;32;20188;-66
2023/01/09 04:12:55;;;;;;;0.60;0.60;;;;;;;7.27;90.18;93838.03;4384358;32;20275;-66
2023/01/09 04:15:21;;;;;;;1.37;0.93;;;;;;;7.31;89.84;93838.94;4365013;32;20200;-66
2023/01/09 04:17:46;;;;;;;0.43;0.43;;;;;;;7.35;89.60;93836.47;4345215;32;20185;-66
2023/01/09 04:20:12;;;;;;;0.50;0.50;;;;;;;7.31;89.89;93840.78;4372155;32;20176;-66
2023/01/09 04:22:38;;;;;;;0.40;0.40;;;;;;;7.43;89.63;93848.88;4388713;32;20180;-66
2023/01/09 04:25:04;;;;;;;0.50;0.50;;;;;;;7.49;89.66;93852.91;4372071;32;20251;-66
2023/01/09 04:27:30;;;;;;;0.40;0.40;;;;;;;7.50;89.65;93855.25;4382695;32;20280;-66
2023/01/09 04:29:55;;;;;;;0.20;0.20;;;;;;;7.61;89.30;93850.44;4378281;32;20326;-66
2023/01/09 04:32:20;;;;;;;0.20;0.20;;;;;;;7.58;89.20;93851.06;4382589;32;20193;-65
2023/01/09 04:34:46;;;;;;;0.67;0.67;;;;;;;7.55;89.77;93863.00;4373994;32;20185;-65
2023/01/09 04:37:11;;;;;;;0.20;0.20;;;;;;;7.76;88.80;93859.75;4390762;32;20248;-66
2023/01/09 04:39:42;;;;;;;0.20;0.20;;;;;;;7.57;89.38;93865.34;4380681;32;20255;-66
2023/01/09 04:42:07;;;;;;;0.33;0.33;;;;;;;7.46;90.06;93875.44;4374473;32;20191;-66
2023/01/09 04:44:33;;;;;;;0.67;0.67;;;;;;;7.53;89.65;93881.00;4389516;32;20347;-66
2023/01/09 04:46:58;;;;;;;0.20;0.20;;;;;;;7.70;89.64;93890.00;4388454;32;20176;-66
2023/01/09 04:49:24;;;;;;;0.53;0.53;;;;;;;7.73;89.23;93889.41;4389893;32;20184;-66
2023/01/09 04:51:49;;;;;;;0.17;0.17;;;;;;;7.56;89.70;93898.09;4376069;32;20180;-66
2023/01/09 04:54:15;;;;;;;0.67;0.67;;;;;;;7.39;90.57;93906.75;4389537;32;20203;-65
2023/01/09 04:56:40;;;;;;;0.23;0.23;;;;;;;7.52;89.87;93902.41;4369402;32;20225;-66
2023/01/09 04:59:07;;;;;;;0.60;0.30;;;;;;;7.54;90.16;93922.12;4385405;32;20189;-66
2023/01/09 05:01:32;;;;;;;0.47;0.47;;;;;;;7.78;89.58;93918.28;4381641;32;20232;-66
2023/01/09 05:03:58;;;;;;;0.90;0.30;;;;;;;7.76;89.77;93915.19;4385388;32;20304;-66
2023/01/09 05:06:23;;;;;;;0.23;0.23;;;;;;;7.63;90.25;93926.66;4360581;32;20255;-66
2023/01/09 05:08:53;;;;;;;0.07;0.07;;;;;;;7.78;89.64;93928.84;4382864;32;20172;-65
2023/01/09 05:11:18;;;;;;;0.00;0.00;;;;;;;7.82;90.01;93927.16;4375684;32;20290;-65
2023/01/09 05:13:44;;;;;;;0.10;0.10;;;;;;;7.76;89.99;93941.56;4388258;32;20283;-65
2023/01/09 05:16:09;;;;;;;0.00;0.00;;;;;;;7.73;89.96;93947.47;4387711;32;20193;-66
2023/01/09 05:18:35;;;;;;;0.10;0.10;;;;;;;7.84;89.59;93954.78;4381408;32;20176;-66
2023/01/09 05:21:00;;;;;;;0.27;0.27;;;;;;;7.80;89.51;93948.56;4386778;32;20235;-66
2023/01/09 05:23:26;;;;;;;0.00;0.00;;;;;;;7.92;89.33;93966.44;4383311;32;20192;-65
2023/01/09 05:25:51;;;;;;;0.00;0.00;;;;;;;7.93;88.16;93973.25;4375918;32;20215;-66
2023/01/09 05:28:16;;;;;;;0.10;0.10;;;;;;;7.97;88.04;93982.13;4378575;32;20184;-66
2023/01/09 05:30:42;;;;;;;0.00;0.00;;;;;;;8.01;87.46;93993.63;4382659;32;20267;-66
2023/01/09 05:33:07;;;;;;;0.00;0.00;;;;;;;8.04;87.79;93998.28;4374929;32;20208;-66
2023/01/09 05:35:32;;;;;;;0.00;0.00;;;;;;;7.94;87.65;94001.22;4379276;32;20237;-66
2023/01/09 05:37:58;;;;;;;0.00;0.00;;;;;;;7.90;87.93;94016.91;4360025;32;20185;-66
2023/01/09 05:40:23;;;;;;;0.00;0.00;;;;;;;7.94;86.99;94022.34;4372447;32;20199;-66
2023/01/09 05:42:49;;;;;;;0.00;0.00;;;;;;;7.99;86.78;94021.44;4380502;32;20180;-66
2023/01/09 05:45:14;;;;;;;0.00;0.00;;;;;;;8.01;86.70;94033.25;4365037;32;20176;-65
2023/01/09 05:47:39;;;;;;;0.00;0.00;;;;;;;7.91;86.05;94044.84;4386926;32;20176;-67
2023/01/09 05:50:05;;;;;;;0.07;0.07;;;;;;;8.00;86.26;94036.97;4370315;32;20306;-66
2023/01/09 05:52:30;;;;;;;0.00;0.00;;;;;;;7.97;85.77;94058.69;4362748;32;20246;-66
2023/01/09 05:54:56;;;;;;;0.00;0.00;;;;;;;7.97;84.41;94058.69;4376035;32;20263;-67
2023/01/09 05:57:21;;;;;;;0.00;0.00;;;;;;;7.98;83.74;94054.19;4374926;32;20189;-66
2023/01/09 05:59:47;;;;;;;0.00;0.00;;;;;;;8.00;83.77;94047.53;4376672;32;20188;-66
2023/01/09 06:02:12;;;;;;;0.10;0.10;;;;;;;7.90;82.80;94053.09;4376000;32;20185;-66
2023/01/09 06:04:38;;;;;;;0.00;0.00;;;;;;;7.85;82.37;94056.66;4383284;32;20196;-66
2023/01/09 06:07:04;;;;;;;0.00;0.00;;;;;;;7.89;82.94;94062.13;4377088;32;20259;-66
2023/01/09 06:09:30;;;;;;;0.00;0.00;;;;;;;7.80;83.01;94048.87;4371044;32;20284;-66
2023/01/09 06:11:55;;;;;;;0.00;0.00;;;;;;;7.83;82.82;94052.78;4366149;32;20192;-66
2023/01/09 06:14:21;;;;;;;0.00;0.00;;;;;;;7.87;82.27;94043.16;4383878;32;20276;-66
2023/01/09 06:16:47;;;;;;;0.00;0.00;;;;;;;7.93;80.73;94058.53;4379788;32;20259;-66
2023/01/09 06:19:12;;;;;;;0.00;0.00;;;;;;;7.91;79.76;94063.34;4378892;32;20203;-66
2023/01/09 06:21:37;;;;;;;0.00;0.00;;;;;;;7.98;79.39;94060.25;4375996;32;20172;-67
2023/01/09 06:24:03;;;;;;;0.00;0.00;;;;;;;7.82;80.21;94078.41;4374692;32;20331;-66
2023/01/09 06:26:28;;;;;;;0.00;0.00;;;;;;;7.91;78.97;94070.47;4369466;32;20205;-66
2023/01/09 06:28:54;;;;;;;0.00;0.00;;;;;;;7.83;78.65;94076.53;4377784;32;20216;-66
2023/01/09 06:31:24;;;;;;;0.00;0.00;;;;;;;7.79;77.57;94080.88;4364053;32;20185;-67
2023/01/09 06:33:50;;;;;;;0.00;0.00;;;;;;;7.78;77.83;94090.66;4387106;32;20378;-67
2023/01/09 06:36:15;;;;;;;0.00;0.00;;;;;;;7.86;77.97;94086.50;4389836;32;20268;-66
2023/01/09 06:38:41;;;;;;;0.00;0.00;;;;;;;7.86;77.31;94099.69;4389333;32;20186;-67
2023/01/09 06:41:06;;;;;;;0.00;0.00;;;;;;;7.71;77.72;94102.72;4375854;32;20172;-67
2023/01/09 06:43:31;;;;;;;0.00;0.00;;;;;;;7.78;77.00;94111.75;4367714;32;20164;-66
2023/01/09 06:45:57;;;;;;;0.00;0.00;;;;;;;7.78;77.27;94110.97;4389347;32;20180;-66
2023/01/09 06:48:23;;;;;;;0.00;0.00;;;;;;;7.67;77.86;94125.53;4375776;32;20215;-66
2023/01/09 06:50:51;;;;;;;0.00;0.00;;;;;;;7.82;78.34;94122.50;4387006;32;20207;-66
2023/01/09 06:53:17;;;;;;;0.00;0.00;;;;;;;7.69;78.22;94131.31;4378678;32;20284;-66
2023/01/09 06:55:43;;;;;;;0.00;0.00;;;;;;;7.69;77.57;94131.31;4374196;32;20359;-66
2023/01/09 06:58:08;;;;;;;0.00;0.00;;;;;;;7.55;79.15;94132.16;4370072;32;20185;-67
2023/01/09 07:00:34;;;;;;;0.00;0.00;;;;;;;7.48;79.05;94129.16;4381713;32;20267;-66
2023/01/09 07:02:59;;;;;;;0.30;0.10;;;;;;;7.37;79.64;94130.50;4371632;32;20184;-66
2023/01/09 07:05:25;;;;;;;0.20;0.20;;;;;;;7.60;79.34;94149.72;4376266;32;20267;-66
2023/01/09 07:07:51;;;;;;;0.00;0.00;;;;;;;7.55;78.63;94145.34;4382674;32;20192;-66
2023/01/09 07:10:16;;;;;;;0.00;0.00;;;;;;;7.54;79.77;94150.94;4381812;32;20260;-67
2023/01/09 07:12:41;;;;;;;0.00;0.00;;;;;;;7.50;79.47;94158.66;4391530;32;20184;-67
2023/01/09 07:15:07;;;;;;;0.00;0.00;;;;;;;7.52;79.03;94174.19;4370521;32;20181;-67
2023/01/09 07:17:33;;;;;;;0.00;0.00;;;;;;;7.59;79.46;94154.22;4372305;32;20216;-67
2023/01/09 07:19:59;;;;;;;0.03;0.03;;;;;;;7.51;79.04;94168.13;4376254;32;20309;-67
2023/01/09 07:22:24;;;;;;;0.00;0.00;;;;;;;7.40;78.82;94166.84;4383717;32;20184;-67
2023/01/09 07:24:50;;;;;;;0.00;0.00;;;;;;;7.29;79.42;94176.06;4371846;32;20282;-66
2023/01/09 07:27:15;;;;;;;0.40;0.10;;;;;;;7.33;78.93;94177.03;4387183;32;20191;-66
2023/01/09 07:29:42;;;;;;;0.00;0.00;;;;;;;7.45;80.70;94174.66;4390162;32;20190;-67
2023/01/09 07:32:10;;;;;;;0.10;0.10;;;;;;;7.44;78.66;94180.22;4382481;32;20180;-67
2023/01/09 07:34:35;;;;;;;0.00;0.00;;;;;;;7.32;78.70;94182.59;4386215;32;20374;-67
2023/01/09 07:37:00;;;;;;;22.00;3.00;;;;;;;7.38;78.39;94184.84;4360395;32;20277;-56
2023/01/09 07:39:28;;;;;;;2.67;1.00;;;;;;;8.41;95.43;94186.41;4384421;32;20260;-54
2023/01/09 07:41:53;;;;;;;1.13;0.93;;;;;;;9.50;92.70;94205.63;4375620;32;20242;-55
2023/01/09 07:44:18;;;;;;;0.87;0.30;;;;;;;10.45;84.19;94205.34;4383501;32;20359;-56
2023/01/09 07:46:44;;;;;;;0.00;0.00;;;;;;;11.05;78.04;94218.25;4376654;32;20232;-55
2023/01/09 07:49:09;;;;;;;0.00;0.00;;;;;;;11.30;70.97;94213.88;4367680;32;20180;-55
2023/01/09 07:51:34;;;;;;;0.03;0.03;;;;;;;11.71;69.09;94221.78;4386059;32;20181;-56
2023/01/09 07:54:00;;;;;;;0.13;0.13;;;;;;;12.36;73.21;94225.50;4388246;32;20271;-56
2023/01/09 07:56:25;;;;;;;0.00;0.00;;;;;;;12.84;70.08;94228.53;4381279;32;20203;-56
2023/01/09 07:58:50;;;;;;;0.10;0.10;;;;;;;12.79;66.53;94229.50;4380887;32;20329;-55
2023/01/09 08:01:16;;;;;;;0.00;0.00;;;;;;;12.66;69.75;94239.41;4381394;32;20176;-55
2023/01/09 08:03:44;;;;;;;0.10;0.10;;;;;;;12.92;71.27;94241.69;4362177;32;20230;-65
2023/01/09 08:06:09;;;;;;;0.03;0.03;;;;;;;11.41;63.65;94254.87;4381564;32;20188;-64
2023/01/09 08:08:34;;;;;;;0.00;0.00;;;;;;;10.95;65.01;94261.87;4361476;32;20184;-63
2023/01/09 08:11:00;;;;;;;0.00;0.00;;;;;;;9.29;71.28;94276.94;4388813;32;20193;-61
2023/01/09 08:13:25;;;;;;;0.00;0.00;;;;;;;8.81;73.69;94261.91;4368285;32;20209;-62
2023/01/09 08:15:50;;;;;;;0.00;0.00;;;;;;;8.61;75.31;94267.78;4385392;32;20301;-63
2023/01/09 08:18:15;;;;;;;0.10;0.10;;;;;;;8.24;78.29;94271.66;4388687;32;20187;-62
2023/01/09 08:20:41;;;;;;;0.00;0.00;;;;;;;8.13;77.63;94265.84;4375566;32;20189;-63
2023/01/09 08:23:06;;;;;;;0.10;0.10;;;;;;;8.15;78.65;94271.59;4387203;32;20206;-62
2023/01/09 08:25:32;;;;;;;0.00;0.00;;;;;;;8.12;77.92;94269.56;4389550;32;20214;-62
2023/01/09 08:27:57;;;;;;;0.00;0.00;;;;;;;8.32;77.08;94276.22;4376482;32;20206;-62
2023/01/09 08:30:22;;;;;;;0.00;0.00;;;;;;;7.99;77.43;94280.22;4365131;32;20237;-64
2023/01/09 08:32:53;;;;;;;0.00;0.00;;;;;;;8.12;76.63;94287.28;4382667;32;20247;-61
2023/01/09 08:35:19;;;;;;;0.20;0.20;;;;;;;7.80;74.78;94283.84;4350108;32;20247;-62
2023/01/09 08:37:46;;;;;;;0.03;0.03;;;;;;;7.68;74.99;94272.28;4384575;32;20378;-62
2023/01/09 08:40:15;;;;;;;0.20;0.20;;;;;;;7.63;74.26;94296.12;4391469;32;20322;-61
2023/01/09 08:48:09;;;;;;;0.10;0.10;;;;;;;7.87;74.38;94315.09;4376127;32;20296;-60
2023/01/09 08:50:34;;;;;;;0.20;0.20;;;;;;;7.76;72.63;94311.12;4378418;32;20280;-60
2023/01/09 08:53:00;;;;;;;0.00;0.00;;;;;;;7.93;72.35;94316.53;4385386;32;20177;-59
2023/01/09 08:55:25;;;;;;;0.00;0.00;;;;;;;7.84;72.91;94316.47;4390447;32;20191;-60
2023/01/09 08:57:52;;;;;;;0.00;0.00;;;;;;;7.68;72.39;94319.78;4381638;32;20205;-59
2023/01/09 09:00:19;;;;;;;0.00;0.00;;;;;;;7.63;72.21;94301.41;4382639;32;20177;-62
2023/01/09 09:02:49;;;;;;;0.23;0.23;;;;;;;7.66;71.51;94314.03;4373916;32;20410;-64
2023/01/09 09:05:15;;;;;;;0.00;0.00;;;;;;;7.84;71.78;94316.47;4384205;32;20264;-61
2023/01/09 09:07:45;;;;;;;0.10;0.10;;;;;;;7.83;69.93;94311.50;4373447;32;20291;-61
2023/01/09 09:10:11;;;;;;;0.00;0.00;;;;;;;7.80;70.82;94306.81;4359351;32;20185;-60
2023/01/09 09:12:36;;;;;;;0.00;0.00;;;;;;;7.73;69.61;94315.16;4362170;32;20330;-60
2023/01/09 09:15:23;;;;;;;0.73;0.20;;;;;;;7.69;69.87;94316.06;4379936;32;20267;-65
2023/01/09 09:17:56;;;;;;;0.00;0.00;;;;;;;7.75;70.16;94320.13;4316607;32;20196;-62
2023/01/09 09:20:24;;;;;;;1.43;0.23;;;;;;;7.50;70.06;94327.53;4351617;32;20291;-59
2023/01/09 09:22:52;;;;;;;0.00;0.00;;;;;;;7.70;69.12;94320.22;4333824;32;20341;-59
2023/01/09 09:25:18;;;;;;;0.10;0.10;;;;;;;8.02;67.67;94322.66;4353451;32;20300;-62
2023/01/09 09:27:44;;;;;;;0.07;0.07;;;;;;;7.94;67.29;94324.16;4389640;32;20370;-61
2023/01/09 09:30:11;;;;;;;0.00;0.00;;;;;;;7.96;67.10;94323.84;4373632;32;20277;-62
2023/01/09 09:32:37;;;;;;;0.00;0.00;;;;;;;7.79;67.93;94326.38;4371781;32;20203;-62
2023/01/09 09:35:03;;;;;;;0.00;0.00;;;;;;;7.72;66.83;94328.63;4375918;32;20453;-61
2023/01/09 09:37:29;;;;;;;0.00;0.00;;;;;;;7.80;67.68;94334.00;4373700;32;20277;-59
2023/01/09 09:39:54;;;;;;;0.00;0.00;;;;;;;7.79;66.08;94336.94;4371365;32;20347;-62
2023/01/09 09:45:21;;;;;;;0.20;0.20;;;;;;;7.78;67.00;94346.72;4388976;32;20202;-46
2023/01/09 09:48:12;;;;;;;0.10;0.10;;;;;;;8.51;82.63;94336.78;4376887;32;20335;-53
2023/01/09 09:51:13;;;;;;;0.00;0.00;;;;;;;11.92;87.83;94335.28;4349765;32;20276;-53
2023/01/09 09:53:59;;;;;;;0.00;0.00;;;;;;;12.83;69.35;94326.22;4346119;32;20197;-52
2023/01/09 09:56:26;;;;;;;0.43;0.30;;;;;;;12.13;60.05;94333.38;4388812;32;20226;-61
2023/01/09 09:59:13;;;;;;;0.00;0.00;;;;;;;12.83;56.26;94328.09;4379038;32;20192;-62
2023/01/09 10:01:47;;;;;;;0.00;0.00;;;;;;;11.59;53.74;94338.63;4389919;32;20184;-60
2023/01/09 10:04:17;;;;;;;0.00;0.00;;;;;;;10.21;57.23;94335.78;4373512;32;20235;-60
2023/01/09 10:06:46;;;;;;;0.00;0.00;;;;;;;9.10;60.22;94334.66;4348572;32;20184;-60
2023/01/09 10:09:26;;;;;;;0.00;0.00;;;;;;;8.43;63.44;94340.16;4376000;32;20184;-61
2023/01/09 10:12:07;;;;;;;0.03;0.03;;;;;;;8.16;65.33;94330.50;4375810;32;20276;-62
2023/01/09 10:14:33;;;;;;;0.03;0.03;;;;;;;7.95;65.59;94330.22;4390151;32;20400;-60
2023/01/09 10:17:17;;;;;;;0.00;0.00;;;;;;;8.18;65.01;94330.97;4376030;32;20287;-61
2023/01/09 10:19:58;;;;;;;0.20;0.20;;;;;;;8.02;66.35;94325.28;4389168;32;20223;-61
2023/01/09 10:23:10;;;;;;;0.10;0.10;;;;;;;8.04;65.24;94315.22;4381423;32;20314;-59
2023/01/09 10:25:50;;;;;;;0.57;0.17;;;;;;;8.12;65.38;94313.69;4360774;32;20272;-60
2023/01/09 10:28:34;;;;;;;0.10;0.10;;;;;;;8.09;65.64;94314.31;4373412;32;20326;-61
2023/01/09 10:31:30;;;;;;;0.00;0.00;;;;;;;8.08;64.89;94310.88;4389869;32;20298;-64
2023/01/09 10:34:22;;;;;;;0.10;0.10;;;;;;;8.06;66.06;94305.13;4378017;32;20272;-60
2023/01/09 10:36:48;;;;;;;0.00;0.00;;;;;;;7.86;65.24;94316.97;4375469;32;20273;-60
2023/01/09 10:39:28;;;;;;;0.20;0.20;;;;;;;7.73;65.27;94317.00;4393093;32;20282;-60
2023/01/09 10:42:03;;;;;;;9.63;0.47;;;;;;;7.84;64.55;94313.06;4352939;32;20285;-60
2023/01/09 10:44:42;;;;;;;0.10;0.10;;;;;;;7.77;65.51;94328.53;4391613;32;20263;-62
2023/01/09 10:47:20;;;;;;;0.00;0.00;;;;;;;7.87;65.25;94317.75;4377483;32;20290;-60
2023/01/09 10:49:48;;;;;;;0.93;0.37;;;;;;;8.03;64.49;94313.66;4376033;32;20359;-60
2023/01/09 10:52:19;;;;;;;0.10;0.10;;;;;;;8.19;64.90;94308.75;4391962;32;20268;-61
2023/01/09 10:54:53;;;;;;;0.17;0.17;;;;;;;7.97;63.83;94312.19;4382610;32;20276;-61
2023/01/09 10:57:41;;;;;;;0.20;0.10;;;;;;;7.92;64.31;94314.97;4384595;32;20299;-61
2023/01/09 11:00:15;;;;;;;0.00;0.00;;;;;;;8.16;64.30;94310.13;4391916;32;20264;-65
2023/01/09 11:02:40;;;;;;;0.10;0.10;;;;;;;8.20;64.21;94311.09;4378881;32;20283;-61
2023/01/09 11:05:09;;;;;;;0.00;0.00;;;;;;;8.35;63.42;94317.09;4383269;32;20268;-60
2023/01/09 11:07:37;;;;;;;0.30;0.13;;;;;;;8.30;64.13;94302.16;4374677;32;20290;-61
2023/01/09 11:10:10;;;;;;;0.03;0.03;;;;;;;8.16;63.73;94315.41;4376436;32;20277;-60
2023/01/09 11:12:37;;;;;;;0.00;0.00;;;;;;;8.26;63.87;94299.31;4373720;32;20283;-62
2023/01/09 11:15:14;;;;;;;0.20;0.20;;;;;;;8.16;63.59;94312.00;4374360;32;20307;-61
2023/01/09 11:17:40;;;;;;;0.87;0.43;;;;;;;8.12;64.06;94309.19;4372340;32;20273;-60
2023/01/09 11:20:17;;;;;;;0.00;0.00;;;;;;;8.17;63.26;94297.72;4378939;32;20397;-60
2023/01/09 11:22:46;;;;;;;0.37;0.37;;;;;;;8.13;63.46;94300.19;4382347;32;20282;-60
2023/01/09 11:25:14;;;;;;;0.07;0.00;;;;;;;8.10;62.50;94314.00;4379897;32;20276;-60
2023/01/09 11:27:39;;;;;;;0.00;0.00;;;;;;;8.24;62.88;94317.34;4352136;32;20275;-63
2023/01/09 11:30:19;;;;;;;1.17;0.60;;;;;;;8.01;63.13;94312.38;4364304;32;20338;-61
2023/01/09 11:32:46;;;;;;;0.10;0.10;;;;;;;8.02;62.99;94311.31;4351907;32;20207;-62
2023/01/09 11:35:22;;;;;;;0.00;0.00;;;;;;;7.79;63.61;94311.31;4355100;32;20291;-62
2023/01/09 11:37:56;;;;;;;0.20;0.20;;;;;;;8.00;63.90;94319.53;4358087;32;20291;-61
2023/01/09 11:40:22;;;;;;;0.20;0.20;;;;;;;8.09;63.12;94307.16;4361189;32;20325;-61
2023/01/09 11:43:13;;;;;;;0.33;0.33;;;;;;;8.13;64.07;94310.75;4370910;32;20273;-62
2023/01/09 11:45:44;;;;;;;0.10;0.10;;;;;;;8.25;62.42;94312.84;4373942;32;20230;-61
2023/01/09 11:48:34;;;;;;;0.00;0.00;;;;;;;8.27;62.19;94311.47;4365834;32;20276;-61
2023/01/09 11:51:00;;;;;;;0.10;0.10;;;;;;;8.34;62.75;94305.75;4368331;32;20272;-63
2023/01/09 11:53:27;;;;;;;0.10;0.10;;;;;;;8.36;62.69;94306.22;4382577;32;20332;-62
2023/01/09 11:55:57;;;;;;;0.10;0.10;;;;;;;8.38;61.65;94305.94;4354497;32;20281;-63
2023/01/09 11:58:22;;;;;;;0.03;0.03;;;;;;;8.33;61.74;94304.19;4356652;32;20291;-62
2023/01/09 12:01:17;;;;;;;0.00;0.00;;;;;;;8.40;62.08;94298.47;4372235;32;20312;-63
2023/01/09 12:04:02;;;;;;;0.30;0.30;;;;;;;8.42;60.74;94299.72;4372569;32;20256;-62
2023/01/09 12:07:22;;;;;;;0.13;0.13;;;;;;;8.32;61.30;94296.53;4370683;32;20294;-62
2023/01/09 12:09:56;;;;;;;0.33;0.33;;;;;;;8.52;61.31;94296.06;4297452;33;20279;-63